This is the latest recevied weather packets stored in our database for station/object SR9WXGR. If no packets are shown the sender has not sent any weather packets the latest 10 day(s).
| Time | Temp. | Humidity | Pressure | Rain* | Wind** | Luminosity | Snow |
|---|---|---|---|---|---|---|---|
| 1778222100 | 15° C | 96% | 977 hPa | - | - | - | - |
| 1778218501 | 15° C | 96% | 976 hPa | - | - | - | - |
| 1778214900 | 13.89° C | 96% | 976 hPa | - | - | - | - |
| 1778211300 | 13.89° C | 96% | 976 hPa | - | - | - | - |
| 1778207701 | 13.89° C | 96% | 975 hPa | - | - | - | - |
| 1778204101 | 13.89° C | 96% | 975 hPa | - | - | - | - |
| 1778200501 | 15° C | 96% | 975 hPa | - | - | - | - |
| 1778196901 | 13.89° C | 96% | 975 hPa | - | - | - | - |
| 1778193301 | 15° C | 96% | 975 hPa | - | - | - | - |
| 1778189701 | 15° C | 96% | 975 hPa | - | - | - | - |
| 1778186101 | 15.56° C | 96% | 975 hPa | - | - | - | - |
| 1778182501 | 15.56° C | 96% | 974 hPa | - | - | - | - |
| 1778178901 | 15.56° C | 96% | 974 hPa | - | - | - | - |
| 1778175300 | 16.67° C | 96% | 973 hPa | - | - | - | - |
| 1778171700 | 16.67° C | 95% | 973 hPa | - | - | - | - |
| 1778168101 | 17.78° C | 82% | 973 hPa | - | - | - | - |
| 1778164501 | 20° C | 60% | 973 hPa | - | - | - | - |
| 1778160900 | 21.67° C | 43% | 972 hPa | - | - | - | - |
| 1778157300 | 25.56° C | 28% | 972 hPa | - | - | - | - |
| 1778153701 | 25.56° C | 28% | 972 hPa | - | - | - | - |
| 1778150101 | 25.56° C | 29% | 972 hPa | - | - | - | - |
| 1778146501 | 25° C | 30% | 971 hPa | - | - | - | - |
| 1778142901 | 23.89° C | 33% | 971 hPa | - | - | - | - |
| 1778139301 | 22.78° C | 35% | 970 hPa | - | - | - | - |
| 1778135701 | 20.56° C | 40% | 970 hPa | - | - | - | - |
* Rain since midnight (hover to see other rain measurements)
** Current wind speed in m/s (hover to see current wind gust speed)